LFMP/PGF METAR and TAF weather

Enter ICAO airport designator
Station Type Date Time Source
LFMP METAR 2021/04/17 01:30 UTC NOAA

LFMP 170130Z AUTO 30007KT CAVOK 09/M05 Q1018


Station Type Date Time Source
LFMP Decoded METAR 2021/04/17 01:30 UTC NOAA

Perpignan, France (LFMP) 42-44N 002-52E 48M
Apr 16, 2021 - 09:30 PM EDT / 2021.04.17 0130 UTC
Wind: from the WNW (300 degrees) at 8 MPH (7 KT):0
Visibility: greater than 7 mile(s):0
Temperature: 48 F (9 C)
Dew Point: 23 F (-5 C)
Relative Humidity: 36%
Pressure (altimeter): 30.06 in. Hg (1018 hPa)
ob: LFMP 170130Z AUTO 30007KT CAVOK 09/M05 Q1018
cycle: 1

Station Type Date Time Source
LFMP TAF 2021/04/16 21:37 UTC NOAA

TAF LFMP 162131Z 1621/1715 CNL

Example: see airport list